createdAt,value
2018-10-11T00:01:55.368Z,101370.45
2018-10-11T00:04:24.233Z,101366.70
2018-10-11T00:06:53.009Z,101365.72
2018-10-11T00:09:21.791Z,101359.55
2018-10-11T00:11:50.561Z,101361.56
2018-10-11T00:14:21.518Z,101360.83
2018-10-11T00:16:50.247Z,101370.97
2018-10-11T00:19:19.122Z,101368.30
2018-10-11T00:21:47.848Z,101368.13
2018-10-11T00:24:16.684Z,101359.89
2018-10-11T00:26:45.429Z,101366.14
2018-10-11T00:29:14.381Z,101365.79
2018-10-11T00:31:43.277Z,101366.03
2018-10-11T00:34:12.041Z,101363.89
2018-10-11T00:36:40.849Z,101356.68
2018-10-11T00:39:09.928Z,101373.04
2018-10-11T00:41:38.673Z,101372.47
2018-10-11T00:44:07.634Z,101359.75
2018-10-11T00:46:36.571Z,101354.66
2018-10-11T00:49:05.529Z,101356.68
2018-10-11T00:51:34.257Z,101352.37
2018-10-11T00:54:03.246Z,101367.25
2018-10-11T00:56:31.916Z,101356.52
2018-10-11T00:59:00.743Z,101363.02
2018-10-11T01:01:29.472Z,101353.20
2018-10-11T01:03:58.321Z,101355.95
2018-10-11T01:06:27.051Z,101352.63
2018-10-11T01:08:55.898Z,101350.55
2018-10-11T01:11:24.624Z,101352.39
2018-10-11T01:13:53.585Z,101348.27
2018-10-11T01:21:10.731Z,101337.63
2018-10-11T01:23:39.790Z,101336.54
2018-10-11T01:26:08.638Z,101344.17
2018-10-11T01:28:37.376Z,101341.35
2018-10-11T01:31:11.776Z,101347.35
2018-10-11T01:33:40.705Z,101334.39
2018-10-11T01:36:09.431Z,101328.00
2018-10-11T01:38:38.193Z,101321.19
2018-10-11T01:41:07.217Z,101312.95
2018-10-11T01:43:36.045Z,101307.63
2018-10-11T01:46:04.972Z,101302.08
2018-10-11T01:48:33.707Z,101301.84
2018-10-11T01:51:02.560Z,101294.28
2018-10-11T01:53:31.368Z,101299.33
2018-10-11T01:56:00.357Z,101295.45
2018-10-11T01:58:29.093Z,101296.94
2018-10-11T02:00:57.995Z,101286.80
2018-10-11T02:03:26.737Z,101283.90
2018-10-11T02:05:55.593Z,101275.61
2018-10-11T02:08:24.332Z,101280.91
2018-10-11T02:10:53.204Z,101275.69
2018-10-11T02:13:21.976Z,101282.17
2018-10-11T02:15:50.854Z,101268.97
2018-10-11T02:18:19.605Z,101268.63
2018-10-11T02:20:48.524Z,101262.84
2018-10-11T02:23:17.447Z,101268.17
2018-10-11T02:25:46.214Z,101273.22
2018-10-11T02:28:15.116Z,101268.06
2018-10-11T02:30:43.941Z,101263.69
2018-10-11T02:34:16.280Z,101264.19
2018-10-11T02:36:45.174Z,101265.11
2018-10-11T02:39:13.966Z,101269.72
2018-10-11T02:41:42.790Z,101265.24
2018-10-11T02:44:11.648Z,101264.63
2018-10-11T02:46:40.406Z,101263.77
2018-10-11T02:49:09.433Z,101257.12
2018-10-11T02:51:38.191Z,101257.66
2018-10-11T02:54:07.347Z,101253.86
2018-10-11T02:56:36.138Z,101248.27
2018-10-11T02:59:17.591Z,101242.58
2018-10-11T03:01:46.350Z,101245.27
2018-10-11T03:04:15.120Z,101242.61
2018-10-11T03:06:43.884Z,101239.05
2018-10-11T03:09:12.651Z,101239.38
2018-10-11T03:11:41.457Z,101235.21
2018-10-11T03:14:10.195Z,101227.94
2018-10-11T03:16:39.017Z,101224.70
2018-10-11T03:19:07.751Z,101219.57
2018-10-11T03:21:36.588Z,101206.63
2018-10-11T03:24:05.401Z,101199.02
2018-10-11T03:26:34.172Z,101197.27
2018-10-11T03:29:02.932Z,101205.31
2018-10-11T03:31:31.767Z,101208.65
2018-10-11T03:34:00.513Z,101210.21
2018-10-11T03:36:29.324Z,101204.88
2018-10-11T03:38:58.068Z,101200.64
2018-10-11T03:41:26.882Z,101201.48
2018-10-11T03:43:55.671Z,101198.91
2018-10-11T03:46:24.581Z,101204.34
2018-10-11T03:48:53.392Z,101204.93
2018-10-11T03:51:22.261Z,101204.41
2018-10-11T03:53:51.024Z,101211.58
2018-10-11T03:56:20.367Z,101218.59
2018-10-11T03:58:49.174Z,101221.20
2018-10-11T04:01:19.075Z,101220.88
2018-10-11T04:03:47.815Z,101218.30
2018-10-11T04:06:16.635Z,101222.30
2018-10-11T04:08:45.403Z,101220.91
2018-10-11T04:11:14.200Z,101219.36
2018-10-11T04:13:43.244Z,101206.77
2018-10-11T04:16:12.091Z,101209.45
2018-10-11T04:18:41.175Z,101199.54
2018-10-11T04:21:11.517Z,101200.02
2018-10-11T04:23:40.260Z,101196.13
2018-10-11T04:26:09.129Z,101198.25
2018-10-11T04:28:37.886Z,101203.44
2018-10-11T04:31:06.670Z,101192.92
2018-10-11T04:33:35.464Z,101197.06
2018-10-11T04:36:04.372Z,101200.46
2018-10-11T04:38:33.162Z,101198.47
2018-10-11T04:41:01.945Z,101190.07
2018-10-11T04:43:30.838Z,101189.73
2018-10-11T04:45:59.712Z,101196.82
2018-10-11T04:48:28.847Z,101199.28
2018-10-11T04:50:57.603Z,101194.92
2018-10-11T04:53:26.459Z,101195.41
2018-10-11T04:55:55.301Z,101187.48
2018-10-11T04:58:24.036Z,101188.80
2018-10-11T05:00:52.836Z,101199.41
2018-10-11T05:03:21.577Z,101205.08
2018-10-11T05:05:50.812Z,101197.06
2018-10-11T05:08:19.783Z,101193.28
2018-10-11T05:10:48.637Z,101186.91
2018-10-11T05:13:17.537Z,101190.66
2018-10-11T05:15:46.313Z,101181.78
2018-10-11T05:18:17.761Z,101179.87
2018-10-11T05:20:46.487Z,101184.50
2018-10-11T05:23:15.253Z,101180.20
2018-10-11T05:25:44.023Z,101190.20
2018-10-11T05:28:12.826Z,101184.99
2018-10-11T05:30:43.917Z,101178.61
2018-10-11T05:33:13.239Z,101181.98
2018-10-11T05:35:42.040Z,101173.46
2018-10-11T05:38:10.848Z,101178.64
2018-10-11T05:40:39.941Z,101183.17
2018-10-11T05:43:08.732Z,101186.17
2018-10-11T05:45:37.632Z,101184.23
2018-10-11T05:48:06.420Z,101203.73
2018-10-11T05:50:35.280Z,101220.34
2018-10-11T05:53:04.041Z,101225.44
2018-10-11T05:55:32.879Z,101227.88
2018-10-11T05:58:02.109Z,101226.75
2018-10-11T06:00:59.582Z,101225.16
2018-10-11T06:03:28.384Z,101219.50
2018-10-11T06:05:57.219Z,101220.22
2018-10-11T06:08:25.966Z,101228.52
2018-10-11T06:10:54.808Z,101226.49
2018-10-11T06:13:23.588Z,101230.04
2018-10-11T06:15:53.394Z,101222.89
2018-10-11T06:18:22.129Z,101236.56
2018-10-11T06:20:50.986Z,101229.55
2018-10-11T06:23:19.724Z,101222.34
2018-10-11T06:25:48.555Z,101227.26
2018-10-11T06:28:17.360Z,101225.20
2018-10-11T06:30:46.316Z,101227.67
2018-10-11T06:33:15.165Z,101218.64
2018-10-11T06:35:44.232Z,101225.66
2018-10-11T06:38:12.937Z,101238.99
2018-10-11T06:40:41.828Z,101230.49
2018-10-11T06:43:10.564Z,101235.28
2018-10-11T06:45:39.393Z,101214.48
2018-10-11T06:48:09.489Z,101217.78
2018-10-11T06:50:38.286Z,101214.77
2018-10-11T06:53:07.088Z,101214.84
2018-10-11T06:55:35.880Z,101213.48
2018-10-11T06:58:04.613Z,101212.38
2018-10-11T07:00:33.420Z,101208.30
2018-10-11T07:03:02.150Z,101219.42
2018-10-11T07:05:30.928Z,101218.77
2018-10-11T07:07:59.900Z,101215.66
2018-10-11T07:10:28.940Z,101209.73
2018-10-11T07:12:57.771Z,101203.20
2018-10-11T07:15:26.624Z,101207.42
2018-10-11T07:17:55.604Z,101229.06
2018-10-11T07:20:24.373Z,101209.63
2018-10-11T07:22:53.192Z,101214.17
2018-10-11T07:25:21.936Z,101213.67
2018-10-11T07:27:50.752Z,101209.60
2018-10-11T07:30:19.544Z,101224.34
2018-10-11T07:32:48.308Z,101219.73
2018-10-11T07:35:17.206Z,101230.80
2018-10-11T07:37:45.881Z,101227.30
2018-10-11T07:40:14.705Z,101240.05
2018-10-11T07:42:43.471Z,101240.16
2018-10-11T07:45:12.200Z,101254.36
2018-10-11T07:47:41.096Z,101246.48
2018-10-11T07:50:09.838Z,101249.02
2018-10-11T07:52:38.639Z,101252.78
2018-10-11T07:55:07.376Z,101250.03
2018-10-11T07:57:36.206Z,101255.51
2018-10-11T08:00:05.412Z,101260.95
2018-10-11T08:02:34.208Z,101237.77
2018-10-11T08:05:02.960Z,101253.20
2018-10-11T08:07:31.941Z,101241.25
2018-10-11T08:10:00.540Z,101244.70
2018-10-11T08:12:29.365Z,101245.55
2018-10-11T08:14:58.109Z,101239.23
2018-10-11T08:17:27.309Z,101236.02
2018-10-11T08:19:55.757Z,101235.14
2018-10-11T08:22:24.509Z,101231.19
2018-10-11T08:24:53.282Z,101243.80
2018-10-11T08:27:22.073Z,101234.66
2018-10-11T08:29:50.774Z,101235.53
2018-10-11T08:32:19.678Z,101238.13
2018-10-11T08:34:48.361Z,101238.02
2018-10-11T08:37:17.107Z,101235.47
2018-10-11T08:39:45.844Z,101239.59
2018-10-11T08:42:14.620Z,101255.20
2018-10-11T08:44:43.371Z,101259.77
2018-10-11T08:47:12.219Z,101252.07
2018-10-11T08:49:40.984Z,101238.42
2018-10-11T08:52:09.875Z,101267.61
2018-10-11T08:54:47.832Z,101234.99
2018-10-11T08:57:16.605Z,101236.24
2018-10-11T08:59:45.856Z,101233.43
2018-10-11T09:02:14.525Z,101228.62
2018-10-11T09:04:43.529Z,101238.93
2018-10-11T09:07:12.288Z,101226.67
2018-10-11T09:09:41.176Z,101215.45
2018-10-11T09:12:09.888Z,101211.75
2018-10-11T09:14:38.746Z,101202.66
2018-10-11T09:17:07.541Z,101210.02
2018-10-11T09:19:36.257Z,101205.62
2018-10-11T09:22:05.074Z,101205.30
2018-10-11T09:24:33.804Z,101192.81
2018-10-11T09:27:02.653Z,101192.13
2018-10-11T09:29:31.384Z,101188.53
2018-10-11T09:32:00.276Z,101191.95
2018-10-11T09:34:29.149Z,101199.39
2018-10-11T09:36:57.976Z,101202.13
2018-10-11T09:39:26.780Z,101200.39
2018-10-11T09:41:55.583Z,101201.90
2018-10-11T09:44:24.388Z,101207.40
2018-10-11T09:46:53.158Z,101195.92
2018-10-11T09:49:22.080Z,101201.14
2018-10-11T09:51:51.166Z,101189.91
2018-10-11T09:54:20.824Z,101198.42
2018-10-11T09:57:22.272Z,101196.66
2018-10-11T09:59:51.292Z,101190.02
2018-10-11T10:02:21.246Z,101183.80
2018-10-11T10:04:51.344Z,101190.29
2018-10-11T10:07:20.161Z,101188.52
2018-10-11T10:09:49.323Z,101182.40
2018-10-11T10:12:19.258Z,101194.16
2018-10-11T10:14:49.549Z,101180.36
2018-10-11T10:17:18.477Z,101181.80
2018-10-11T10:27:07.667Z,101178.82
2018-10-11T10:29:36.811Z,101176.89
2018-10-11T10:32:06.105Z,101178.12
2018-10-11T10:34:35.071Z,101176.33
2018-10-11T10:37:34.240Z,101172.71
2018-10-11T10:40:03.192Z,101156.15
2018-10-11T10:42:31.976Z,101165.14
2018-10-11T10:45:00.747Z,101151.88
2018-10-11T10:47:29.554Z,101137.33
2018-10-11T10:49:58.306Z,101152.19
2018-10-11T10:52:27.191Z,101156.41
2018-10-11T10:54:56.129Z,101150.76
2018-10-11T10:57:24.944Z,101150.98
2018-10-11T10:59:53.723Z,101151.64
2018-10-11T11:02:22.642Z,101154.09
2018-10-11T11:04:51.415Z,101138.02
2018-10-11T11:07:20.252Z,101138.72
2018-10-11T11:09:48.977Z,101140.74
2018-10-11T11:12:17.756Z,101139.64
2018-10-11T11:14:46.498Z,101143.61
2018-10-11T11:17:15.327Z,101141.81
2018-10-11T11:19:44.052Z,101144.29
2018-10-11T11:23:16.221Z,101132.30
2018-10-11T11:25:45.097Z,101148.87
2018-10-11T11:28:13.985Z,101138.84
2018-10-11T11:30:42.866Z,101135.12
2018-10-11T11:33:11.663Z,101139.38
2018-10-11T11:35:40.559Z,101137.93
2018-10-11T11:38:09.672Z,101145.70
2018-10-11T11:40:38.541Z,101126.63
2018-10-11T11:43:07.739Z,101124.50
2018-10-11T11:45:36.631Z,101117.17
2018-10-11T11:48:06.064Z,101115.89
2018-10-11T11:50:35.035Z,101130.88
2018-10-11T11:53:03.845Z,101108.05
2018-10-11T11:55:32.633Z,101104.64
2018-10-11T11:58:01.760Z,101114.53
2018-10-11T12:00:30.779Z,101109.36
2018-10-11T12:03:00.893Z,101111.79
2018-10-11T12:05:30.408Z,101120.45
2018-10-11T12:07:59.218Z,101115.05
2018-10-11T12:10:27.969Z,101117.55
2018-10-11T12:12:59.054Z,101112.56
2018-10-11T12:15:28.896Z,101115.48
2018-10-11T12:17:58.857Z,101102.70
2018-10-11T12:20:28.775Z,101104.94
2018-10-11T12:22:58.697Z,101114.66
2018-10-11T12:25:27.702Z,101113.84
2018-10-11T12:27:56.481Z,101106.28
2018-10-11T12:30:25.244Z,101115.57
2018-10-11T12:32:54.028Z,101110.22
2018-10-11T12:35:23.593Z,101112.25
2018-10-11T12:37:52.445Z,101119.91
2018-10-11T12:40:21.272Z,101097.06
2018-10-11T12:42:50.013Z,101104.33
2018-10-11T12:45:19.216Z,101103.70
2018-10-11T12:47:47.897Z,101101.75
2018-10-11T12:50:16.648Z,101112.73
2018-10-11T12:52:45.468Z,101105.91
2018-10-11T12:55:14.335Z,101103.08
2018-10-11T12:57:43.209Z,101104.30
2018-10-11T13:00:13.584Z,101106.75
2018-10-11T13:02:42.472Z,101102.89
2018-10-11T13:05:11.176Z,101096.26
2018-10-11T13:07:40.290Z,101105.89
2018-10-11T13:10:09.029Z,101107.53
2018-10-11T13:12:37.848Z,101102.05
2018-10-11T13:15:07.384Z,101108.52
2018-10-11T13:17:41.822Z,101108.80
2018-10-11T13:20:05.584Z,101111.20
2018-10-11T13:22:34.327Z,101095.47
2018-10-11T13:25:03.146Z,101092.77
2018-10-11T13:27:31.883Z,101093.19
2018-10-11T13:30:00.692Z,101081.83
2018-10-11T13:32:29.424Z,101080.47
2018-10-11T13:34:58.327Z,101081.78
2018-10-11T13:37:27.078Z,101087.73
2018-10-11T13:39:58.092Z,101083.94
2018-10-11T13:42:25.141Z,101090.58
2018-10-11T13:44:53.897Z,101080.23
2018-10-11T13:47:22.790Z,101095.13
2018-10-11T13:49:51.465Z,101091.05
2018-10-11T13:52:22.513Z,101087.87
2018-10-11T13:54:49.995Z,101081.16
2018-10-11T13:57:20.896Z,101080.87
2018-10-11T13:59:47.596Z,101087.40
2018-10-11T14:02:16.788Z,101087.40
2018-10-11T14:04:45.533Z,101081.95
2018-10-11T14:07:14.516Z,101088.02
2018-10-11T14:09:43.370Z,101085.30
2018-10-11T14:12:12.572Z,101080.70
2018-10-11T14:14:41.339Z,101072.00
2018-10-11T14:17:10.188Z,101082.56
2018-10-11T14:19:38.968Z,101079.50
2018-10-11T14:22:07.874Z,101092.42
2018-10-11T14:24:36.788Z,101082.75
2018-10-11T14:27:05.650Z,101072.40
2018-10-11T14:29:34.432Z,101077.40
2018-10-11T14:32:03.300Z,101078.36
2018-10-11T14:34:32.079Z,101081.20
2018-10-11T14:37:00.949Z,101085.82
2018-10-11T14:39:29.610Z,101077.68
2018-10-11T14:41:58.500Z,101077.73
2018-10-11T14:44:27.356Z,101078.92
2018-10-11T14:46:56.123Z,101077.63
2018-10-11T14:49:24.953Z,101083.46
2018-10-11T14:51:53.713Z,101070.45
2018-10-11T14:54:22.515Z,101069.39
2018-10-11T14:56:51.410Z,101060.18
2018-10-11T14:59:20.192Z,101062.56
2018-10-11T15:01:49.121Z,101067.68
2018-10-11T15:04:17.980Z,101071.25
2018-10-11T15:06:46.732Z,101061.92
2018-10-11T15:09:15.674Z,101064.19
2018-10-11T15:11:44.675Z,101071.30
2018-10-11T15:14:13.461Z,101068.64
2018-10-11T15:16:42.314Z,101062.62
2018-10-11T15:19:11.160Z,101065.84
2018-10-11T15:21:39.974Z,101060.59
2018-10-11T15:24:09.093Z,101069.87
2018-10-11T15:26:37.915Z,101080.00
2018-10-11T15:29:06.644Z,101086.78
2018-10-11T15:31:35.473Z,101087.42
2018-10-11T15:34:04.245Z,101082.50
2018-10-11T15:36:33.019Z,101085.67
2018-10-11T15:39:01.929Z,101085.20
2018-10-11T15:41:30.744Z,101091.27
2018-10-11T15:43:59.634Z,101090.71
2018-10-11T15:46:28.485Z,101091.91
2018-10-11T15:48:57.221Z,101093.58
2018-10-11T15:51:26.152Z,101094.44
2018-10-11T15:53:54.912Z,101094.08
2018-10-11T15:56:24.252Z,101082.49
2018-10-11T15:58:53.048Z,101085.91
2018-10-11T16:01:21.889Z,101094.41
2018-10-11T16:03:50.652Z,101085.91
2018-10-11T16:06:19.433Z,101086.84
2018-10-11T16:08:48.194Z,101091.97
2018-10-11T16:11:17.009Z,101087.30
2018-10-11T16:13:45.775Z,101092.13
2018-10-11T16:16:14.569Z,101101.11
2018-10-11T16:18:43.307Z,101102.94
2018-10-11T16:21:12.202Z,101111.92
2018-10-11T16:23:40.928Z,101118.83
2018-10-11T16:26:09.841Z,101116.17
2018-10-11T16:28:38.601Z,101123.76
2018-10-11T16:31:07.443Z,101123.91
2018-10-11T16:33:36.260Z,101126.70
2018-10-11T16:36:05.018Z,101121.94
2018-10-11T16:38:33.747Z,101121.48
2018-10-11T16:41:02.619Z,101130.09
2018-10-11T16:43:31.429Z,101126.26
2018-10-11T16:46:00.259Z,101132.99
2018-10-11T16:48:29.015Z,101126.78
2018-10-11T16:50:57.821Z,101125.44
2018-10-11T16:53:26.561Z,101133.17
2018-10-11T16:55:55.732Z,101133.26
2018-10-11T16:58:24.725Z,101128.66
2018-10-11T17:00:53.576Z,101136.50
2018-10-11T17:03:22.912Z,101138.89
2018-10-11T17:05:51.757Z,101144.70
2018-10-11T17:08:20.584Z,101142.61
2018-10-11T17:10:49.419Z,101145.03
2018-10-11T17:13:19.396Z,101145.96
2018-10-11T17:15:48.177Z,101145.28
2018-10-11T17:18:16.964Z,101149.52
2018-10-11T17:20:45.733Z,101142.94
2018-10-11T17:23:14.556Z,101147.66
2018-10-11T17:25:43.320Z,101154.30
2018-10-11T17:28:12.415Z,101155.98
2018-10-11T17:30:41.410Z,101151.30
2018-10-11T17:33:10.220Z,101150.26
2018-10-11T17:35:38.986Z,101147.97
2018-10-11T17:38:07.785Z,101147.25
2018-10-11T17:40:36.559Z,101149.09
2018-10-11T17:43:05.495Z,101153.77
2018-10-11T17:45:34.247Z,101148.08
2018-10-11T17:48:03.060Z,101151.25
2018-10-11T17:50:32.153Z,101155.70
2018-10-11T17:53:00.932Z,101156.28
2018-10-11T17:55:29.883Z,101155.79
2018-10-11T17:57:58.719Z,101149.72
2018-10-11T18:00:27.496Z,101154.28
2018-10-11T18:02:56.244Z,101159.17
2018-10-11T18:05:25.170Z,101159.59
2018-10-11T18:07:54.033Z,101161.08
2018-10-11T18:10:22.859Z,101157.77
2018-10-11T18:12:51.672Z,101169.66
2018-10-11T18:15:20.440Z,101168.64
2018-10-11T18:17:49.187Z,101168.73
2018-10-11T18:20:19.040Z,101165.05
2018-10-11T18:22:47.786Z,101163.70
2018-10-11T18:25:17.074Z,101163.65
2018-10-11T18:27:45.850Z,101163.01
2018-10-11T18:30:14.591Z,101164.02
2018-10-11T18:32:43.391Z,101159.63
2018-10-11T18:35:12.140Z,101159.85
2018-10-11T18:37:40.961Z,101159.68
2018-10-11T18:40:09.690Z,101158.69
2018-10-11T18:42:38.515Z,101169.23
2018-10-11T18:45:07.460Z,101172.36
2018-10-11T18:47:36.237Z,101168.67
2018-10-11T18:50:05.006Z,101165.75
2018-10-11T18:52:33.835Z,101163.70
2018-10-11T18:55:02.556Z,101160.15
2018-10-11T18:57:31.411Z,101163.98
2018-10-11T19:00:00.139Z,101166.26
2018-10-11T19:02:28.885Z,101163.98
2018-10-11T19:04:57.611Z,101166.85
2018-10-11T19:07:26.605Z,101170.15
2018-10-11T19:09:55.334Z,101175.19
2018-10-11T19:12:25.188Z,101171.93
2018-10-11T19:14:53.916Z,101177.73
2018-10-11T19:17:22.791Z,101169.19
2018-10-11T19:19:51.498Z,101175.69
2018-10-11T19:22:20.302Z,101172.47
2018-10-11T19:24:49.051Z,101178.06
2018-10-11T19:27:18.816Z,101175.25
2018-10-11T19:29:47.552Z,101169.07
2018-10-11T19:32:17.324Z,101170.62
2018-10-11T19:34:46.056Z,101173.11
2018-10-11T19:37:16.008Z,101167.02
2018-10-11T19:39:44.798Z,101170.22
2018-10-11T19:42:13.694Z,101168.25
2018-10-11T19:44:42.437Z,101159.17
2018-10-11T19:47:11.258Z,101147.43
2018-10-11T19:49:40.000Z,101154.55
2018-10-11T19:52:08.880Z,101149.63
2018-10-11T19:54:37.660Z,101152.00
2018-10-11T19:57:06.743Z,101153.41
2018-10-11T19:59:35.551Z,101150.10
2018-10-11T20:02:14.312Z,101154.22
2018-10-11T20:05:04.949Z,101156.02
2018-10-11T20:07:33.711Z,101162.02
2018-10-11T20:10:02.754Z,101167.12
2018-10-11T20:12:31.488Z,101169.37
2018-10-11T20:15:00.604Z,101171.82
2018-10-11T20:17:29.441Z,101172.05
2018-10-11T20:19:58.196Z,101183.95
2018-10-11T20:22:26.983Z,101182.29
2018-10-11T20:24:55.892Z,101190.91
2018-10-11T20:27:24.696Z,101194.08
2018-10-11T20:29:53.437Z,101191.62
2018-10-11T20:32:22.331Z,101191.14
2018-10-11T20:34:51.181Z,101185.97
2018-10-11T20:37:19.971Z,101184.08
2018-10-11T20:39:48.863Z,101185.49
2018-10-11T20:42:17.686Z,101202.00
2018-10-11T20:44:46.481Z,101201.53
2018-10-11T20:47:15.273Z,101193.71
2018-10-11T20:49:44.296Z,101198.66
2018-10-11T20:52:13.176Z,101197.24
2018-10-11T20:54:43.791Z,101197.81
2018-10-11T20:57:12.608Z,101198.75
2018-10-11T20:59:41.580Z,101196.77
2018-10-11T21:02:10.373Z,101200.95
2018-10-11T21:04:39.151Z,101195.77
2018-10-11T21:07:07.892Z,101197.85
2018-10-11T21:09:37.840Z,101200.20
2018-10-11T21:12:06.802Z,101199.97
2018-10-11T21:14:35.818Z,101202.69
2018-10-11T21:17:04.637Z,101209.76
2018-10-11T21:19:33.455Z,101208.19
2018-10-11T21:22:02.182Z,101208.55
2018-10-11T21:24:31.097Z,101201.09
2018-10-11T21:26:59.928Z,101204.41
2018-10-11T21:32:42.178Z,101212.44
2018-10-11T21:35:11.003Z,101205.81
2018-10-11T21:37:39.748Z,101205.79
2018-10-11T21:40:09.030Z,101208.86
2018-10-11T21:42:37.819Z,101208.98
2018-10-11T21:45:06.583Z,101205.31
2018-10-11T21:47:35.471Z,101197.75
2018-10-11T21:50:04.317Z,101204.34
2018-10-11T21:52:33.074Z,101204.59
2018-10-11T21:55:01.991Z,101211.30
2018-10-11T21:57:30.743Z,101203.59
2018-10-11T21:59:59.565Z,101209.52
2018-10-11T22:02:28.300Z,101209.77
2018-10-11T22:07:24.834Z,101206.22
2018-10-11T22:09:53.664Z,101206.66
2018-10-11T22:12:22.428Z,101213.02
2018-10-11T22:14:51.302Z,101210.42
2018-10-11T22:17:19.992Z,101210.52
2018-10-11T22:19:48.940Z,101204.86
2018-10-11T22:22:17.718Z,101210.27
2018-10-11T22:24:46.512Z,101206.15
2018-10-11T22:27:15.215Z,101196.34
2018-10-11T22:29:44.088Z,101204.25
2018-10-11T22:32:12.835Z,101215.08
2018-10-11T22:34:41.700Z,101212.09
2018-10-11T22:37:10.471Z,101221.19
2018-10-11T22:39:39.212Z,101212.06
2018-10-11T22:42:07.936Z,101221.88
2018-10-11T22:44:36.732Z,101220.31
2018-10-11T22:47:05.516Z,101226.20
2018-10-11T22:49:34.292Z,101233.39
2018-10-11T22:52:03.017Z,101225.36
2018-10-11T22:54:31.929Z,101232.30
2018-10-11T22:57:00.623Z,101229.35
2018-10-11T22:59:29.527Z,101227.94
2018-10-11T23:01:58.253Z,101232.87
2018-10-11T23:04:26.999Z,101230.37
2018-10-11T23:06:55.728Z,101231.21
2018-10-11T23:09:24.464Z,101230.24
2018-10-11T23:11:53.253Z,101231.41
2018-10-11T23:14:22.051Z,101231.50
2018-10-11T23:16:50.912Z,101233.48
2018-10-11T23:19:19.735Z,101232.98
2018-10-11T23:21:48.483Z,101231.91
2018-10-11T23:24:17.309Z,101233.89
2018-10-11T23:26:46.037Z,101236.72
2018-10-11T23:29:14.837Z,101246.13
2018-10-11T23:31:43.601Z,101243.30
2018-10-11T23:34:12.395Z,101254.03
2018-10-11T23:36:41.196Z,101249.80
2018-10-11T23:39:11.393Z,101257.34
2018-10-11T23:41:40.796Z,101258.77
2018-10-11T23:44:10.205Z,101254.36
2018-10-11T23:46:39.287Z,101256.38
2018-10-11T23:49:08.147Z,101250.80
2018-10-11T23:51:36.879Z,101248.82
2018-10-11T23:54:05.848Z,101245.39
2018-10-11T23:56:34.587Z,101254.23
2018-10-11T23:59:03.501Z,101248.91
